sensor_id;sensor_type;location;lat;lon;timestamp;P1;durP1;ratioP1;P2;durP2;ratioP2
9208;SDS011;4639;48.862;9.188;2023-12-07T00:01:48;158.25;;;147.55;;
9208;SDS011;4639;48.862;9.188;2023-12-07T00:04:14;162.05;;;151.32;;
9208;SDS011;4639;48.862;9.188;2023-12-07T00:06:39;163.55;;;152.57;;
9208;SDS011;4639;48.862;9.188;2023-12-07T00:09:05;162.60;;;151.55;;
9208;SDS011;4639;48.862;9.188;2023-12-07T00:11:30;158.18;;;147.57;;
9208;SDS011;4639;48.862;9.188;2023-12-07T00:13:56;172.07;;;160.60;;
9208;SDS011;4639;48.862;9.188;2023-12-07T00:16:21;170.85;;;159.55;;
9208;SDS011;4639;48.862;9.188;2023-12-07T00:18:47;178.55;;;166.60;;
9208;SDS011;4639;48.862;9.188;2023-12-07T00:21:12;174.65;;;162.98;;
9208;SDS011;4639;48.862;9.188;2023-12-07T00:23:38;170.88;;;159.52;;
9208;SDS011;4639;48.862;9.188;2023-12-07T00:26:04;197.93;;;184.40;;
9208;SDS011;4639;48.862;9.188;2023-12-07T00:28:29;199.95;;;185.80;;
9208;SDS011;4639;48.862;9.188;2023-12-07T00:30:55;158.85;;;148.20;;
9208;SDS011;4639;48.862;9.188;2023-12-07T00:33:21;164.82;;;154.10;;
9208;SDS011;4639;48.862;9.188;2023-12-07T00:35:47;191.45;;;178.38;;
9208;SDS011;4639;48.862;9.188;2023-12-07T00:38:13;163.20;;;152.07;;
9208;SDS011;4639;48.862;9.188;2023-12-07T00:40:38;158.35;;;148.02;;
9208;SDS011;4639;48.862;9.188;2023-12-07T00:43:05;243.48;;;226.60;;
9208;SDS011;4639;48.862;9.188;2023-12-07T00:45:31;158.05;;;147.65;;
9208;SDS011;4639;48.862;9.188;2023-12-07T00:47:56;174.75;;;163.27;;
9208;SDS011;4639;48.862;9.188;2023-12-07T00:50:22;177.85;;;166.00;;
9208;SDS011;4639;48.862;9.188;2023-12-07T00:52:48;171.93;;;160.52;;
9208;SDS011;4639;48.862;9.188;2023-12-07T00:55:13;181.70;;;169.43;;
9208;SDS011;4639;48.862;9.188;2023-12-07T00:57:39;160.38;;;149.63;;
9208;SDS011;4639;48.862;9.188;2023-12-07T01:00:05;155.05;;;144.98;;
9208;SDS011;4639;48.862;9.188;2023-12-07T01:02:31;183.75;;;171.73;;
9208;SDS011;4639;48.862;9.188;2023-12-07T01:04:57;159.38;;;148.82;;
9208;SDS011;4639;48.862;9.188;2023-12-07T01:07:23;195.73;;;182.38;;
9208;SDS011;4639;48.862;9.188;2023-12-07T01:09:48;159.65;;;149.20;;
9208;SDS011;4639;48.862;9.188;2023-12-07T01:12:14;159.70;;;148.93;;
9208;SDS011;4639;48.862;9.188;2023-12-07T01:14:40;207.82;;;193.77;;
9208;SDS011;4639;48.862;9.188;2023-12-07T01:17:06;192.25;;;179.38;;
9208;SDS011;4639;48.862;9.188;2023-12-07T01:19:31;176.68;;;165.30;;
9208;SDS011;4639;48.862;9.188;2023-12-07T01:21:57;145.18;;;136.02;;
9208;SDS011;4639;48.862;9.188;2023-12-07T01:24:22;177.40;;;165.65;;
9208;SDS011;4639;48.862;9.188;2023-12-07T01:26:48;164.50;;;153.80;;
9208;SDS011;4639;48.862;9.188;2023-12-07T01:29:14;164.32;;;153.82;;
9208;SDS011;4639;48.862;9.188;2023-12-07T01:31:40;168.63;;;157.82;;
9208;SDS011;4639;48.862;9.188;2023-12-07T01:34:05;162.13;;;151.68;;
9208;SDS011;4639;48.862;9.188;2023-12-07T01:36:31;160.57;;;150.05;;
9208;SDS011;4639;48.862;9.188;2023-12-07T01:38:57;178.35;;;167.05;;
9208;SDS011;4639;48.862;9.188;2023-12-07T01:41:23;170.38;;;159.50;;
9208;SDS011;4639;48.862;9.188;2023-12-07T01:43:48;149.70;;;139.93;;
9208;SDS011;4639;48.862;9.188;2023-12-07T01:46:15;159.10;;;149.10;;
9208;SDS011;4639;48.862;9.188;2023-12-07T01:48:41;155.55;;;145.55;;
9208;SDS011;4639;48.862;9.188;2023-12-07T01:51:08;181.02;;;169.65;;
9208;SDS011;4639;48.862;9.188;2023-12-07T01:53:35;160.88;;;150.48;;
9208;SDS011;4639;48.862;9.188;2023-12-07T01:56:00;162.85;;;152.55;;
9208;SDS011;4639;48.862;9.188;2023-12-07T01:58:26;155.48;;;145.55;;
9208;SDS011;4639;48.862;9.188;2023-12-07T02:00:52;150.32;;;140.48;;
9208;SDS011;4639;48.862;9.188;2023-12-07T02:03:18;165.32;;;154.50;;
9208;SDS011;4639;48.862;9.188;2023-12-07T02:05:46;153.45;;;143.80;;
9208;SDS011;4639;48.862;9.188;2023-12-07T02:08:13;177.27;;;165.95;;
9208;SDS011;4639;48.862;9.188;2023-12-07T02:10:39;159.40;;;149.35;;
9208;SDS011;4639;48.862;9.188;2023-12-07T02:13:05;160.55;;;150.18;;
9208;SDS011;4639;48.862;9.188;2023-12-07T02:15:32;181.73;;;170.13;;
9208;SDS011;4639;48.862;9.188;2023-12-07T02:20:45;184.20;;;172.18;;
9208;SDS011;4639;48.862;9.188;2023-12-07T02:23:16;211.82;;;198.20;;
9208;SDS011;4639;48.862;9.188;2023-12-07T02:28:18;185.35;;;172.73;;
9208;SDS011;4639;48.862;9.188;2023-12-07T02:30:43;184.25;;;172.25;;
9208;SDS011;4639;48.862;9.188;2023-12-07T02:33:09;175.90;;;163.23;;
9208;SDS011;4639;48.862;9.188;2023-12-07T02:35:36;177.90;;;165.77;;
9208;SDS011;4639;48.862;9.188;2023-12-07T02:38:02;176.63;;;164.82;;
9208;SDS011;4639;48.862;9.188;2023-12-07T02:40:29;171.05;;;159.55;;
9208;SDS011;4639;48.862;9.188;2023-12-07T02:42:56;189.65;;;176.80;;
9208;SDS011;4639;48.862;9.188;2023-12-07T02:45:22;180.93;;;168.82;;
9208;SDS011;4639;48.862;9.188;2023-12-07T02:47:48;167.45;;;156.25;;
9208;SDS011;4639;48.862;9.188;2023-12-07T02:50:14;183.00;;;170.55;;
9208;SDS011;4639;48.862;9.188;2023-12-07T02:52:39;188.68;;;175.43;;
9208;SDS011;4639;48.862;9.188;2023-12-07T02:55:06;176.48;;;164.05;;
9208;SDS011;4639;48.862;9.188;2023-12-07T02:57:32;191.77;;;178.43;;
9208;SDS011;4639;48.862;9.188;2023-12-07T03:00:02;186.32;;;173.50;;
9208;SDS011;4639;48.862;9.188;2023-12-07T03:02:33;168.90;;;156.65;;
9208;SDS011;4639;48.862;9.188;2023-12-07T03:05:03;179.50;;;167.02;;
9208;SDS011;4639;48.862;9.188;2023-12-07T03:07:29;186.13;;;172.90;;
9208;SDS011;4639;48.862;9.188;2023-12-07T03:09:55;169.77;;;157.95;;
9208;SDS011;4639;48.862;9.188;2023-12-07T03:12:21;158.05;;;147.63;;
9208;SDS011;4639;48.862;9.188;2023-12-07T03:14:48;179.93;;;168.25;;
9208;SDS011;4639;48.862;9.188;2023-12-07T03:17:13;171.07;;;159.65;;
9208;SDS011;4639;48.862;9.188;2023-12-07T03:19:39;178.43;;;166.57;;
9208;SDS011;4639;48.862;9.188;2023-12-07T03:22:05;177.48;;;164.93;;
9208;SDS011;4639;48.862;9.188;2023-12-07T03:24:32;174.38;;;162.25;;
9208;SDS011;4639;48.862;9.188;2023-12-07T03:26:59;162.80;;;151.75;;
9208;SDS011;4639;48.862;9.188;2023-12-07T03:29:25;166.45;;;155.75;;
9208;SDS011;4639;48.862;9.188;2023-12-07T03:31:50;151.18;;;141.25;;
9208;SDS011;4639;48.862;9.188;2023-12-07T03:34:16;163.68;;;152.52;;
9208;SDS011;4639;48.862;9.188;2023-12-07T03:36:42;162.35;;;151.40;;
9208;SDS011;4639;48.862;9.188;2023-12-07T03:39:11;150.77;;;140.75;;
9208;SDS011;4639;48.862;9.188;2023-12-07T03:41:38;161.05;;;150.43;;
9208;SDS011;4639;48.862;9.188;2023-12-07T03:44:03;167.20;;;156.35;;
9208;SDS011;4639;48.862;9.188;2023-12-07T03:46:29;151.90;;;142.15;;
9208;SDS011;4639;48.862;9.188;2023-12-07T03:48:54;155.52;;;145.15;;
9208;SDS011;4639;48.862;9.188;2023-12-07T03:51:20;173.77;;;162.65;;
9208;SDS011;4639;48.862;9.188;2023-12-07T03:53:45;167.05;;;156.40;;
9208;SDS011;4639;48.862;9.188;2023-12-07T03:56:21;165.05;;;154.30;;
9208;SDS011;4639;48.862;9.188;2023-12-07T03:58:50;162.18;;;151.63;;
9208;SDS011;4639;48.862;9.188;2023-12-07T04:01:16;171.65;;;160.52;;
9208;SDS011;4639;48.862;9.188;2023-12-07T04:03:42;164.75;;;153.95;;
9208;SDS011;4639;48.862;9.188;2023-12-07T04:06:08;153.10;;;143.07;;
9208;SDS011;4639;48.862;9.188;2023-12-07T04:08:34;155.95;;;145.73;;
9208;SDS011;4639;48.862;9.188;2023-12-07T04:11:00;182.05;;;170.20;;
9208;SDS011;4639;48.862;9.188;2023-12-07T04:13:25;155.30;;;144.98;;
9208;SDS011;4639;48.862;9.188;2023-12-07T04:15:51;166.32;;;155.00;;
9208;SDS011;4639;48.862;9.188;2023-12-07T04:18:17;171.38;;;160.18;;
9208;SDS011;4639;48.862;9.188;2023-12-07T04:20:43;162.52;;;151.82;;
9208;SDS011;4639;48.862;9.188;2023-12-07T04:23:08;177.30;;;165.55;;
9208;SDS011;4639;48.862;9.188;2023-12-07T04:25:34;159.32;;;148.75;;
9208;SDS011;4639;48.862;9.188;2023-12-07T04:27:59;182.75;;;170.52;;
9208;SDS011;4639;48.862;9.188;2023-12-07T04:30:25;158.25;;;147.75;;
9208;SDS011;4639;48.862;9.188;2023-12-07T04:32:51;162.52;;;151.70;;
9208;SDS011;4639;48.862;9.188;2023-12-07T04:35:16;160.35;;;149.95;;
9208;SDS011;4639;48.862;9.188;2023-12-07T04:37:42;160.93;;;150.35;;
9208;SDS011;4639;48.862;9.188;2023-12-07T04:40:07;165.10;;;154.13;;
9208;SDS011;4639;48.862;9.188;2023-12-07T04:42:35;171.98;;;160.80;;
9208;SDS011;4639;48.862;9.188;2023-12-07T04:45:01;161.23;;;150.33;;
9208;SDS011;4639;48.862;9.188;2023-12-07T04:47:26;140.23;;;130.85;;
9208;SDS011;4639;48.862;9.188;2023-12-07T04:49:52;133.65;;;124.95;;
9208;SDS011;4639;48.862;9.188;2023-12-07T04:52:18;124.82;;;116.50;;
9208;SDS011;4639;48.862;9.188;2023-12-07T04:54:44;123.47;;;115.35;;
9208;SDS011;4639;48.862;9.188;2023-12-07T04:57:09;143.85;;;134.25;;
9208;SDS011;4639;48.862;9.188;2023-12-07T04:59:35;114.03;;;105.88;;
9208;SDS011;4639;48.862;9.188;2023-12-07T05:02:01;116.05;;;107.97;;
9208;SDS011;4639;48.862;9.188;2023-12-07T05:04:27;99.13;;;92.40;;
9208;SDS011;4639;48.862;9.188;2023-12-07T05:06:52;103.95;;;97.05;;
9208;SDS011;4639;48.862;9.188;2023-12-07T05:09:18;98.90;;;91.93;;
9208;SDS011;4639;48.862;9.188;2023-12-07T05:11:43;99.60;;;92.90;;
9208;SDS011;4639;48.862;9.188;2023-12-07T05:14:10;93.87;;;87.33;;
9208;SDS011;4639;48.862;9.188;2023-12-07T05:16:36;95.03;;;88.68;;
9208;SDS011;4639;48.862;9.188;2023-12-07T05:19:01;106.70;;;99.60;;
9208;SDS011;4639;48.862;9.188;2023-12-07T05:21:27;98.53;;;91.97;;
9208;SDS011;4639;48.862;9.188;2023-12-07T05:23:53;104.80;;;97.63;;
9208;SDS011;4639;48.862;9.188;2023-12-07T05:26:18;95.30;;;89.00;;
9208;SDS011;4639;48.862;9.188;2023-12-07T05:28:46;100.70;;;93.77;;
9208;SDS011;4639;48.862;9.188;2023-12-07T05:31:17;98.88;;;92.10;;
9208;SDS011;4639;48.862;9.188;2023-12-07T05:33:43;91.10;;;84.95;;
9208;SDS011;4639;48.862;9.188;2023-12-07T05:36:09;83.25;;;77.50;;
9208;SDS011;4639;48.862;9.188;2023-12-07T05:38:35;95.18;;;88.57;;
9208;SDS011;4639;48.862;9.188;2023-12-07T05:41:00;101.53;;;94.57;;
9208;SDS011;4639;48.862;9.188;2023-12-07T05:43:26;98.55;;;91.70;;
9208;SDS011;4639;48.862;9.188;2023-12-07T05:45:52;94.47;;;87.57;;
9208;SDS011;4639;48.862;9.188;2023-12-07T05:48:17;97.32;;;90.82;;
9208;SDS011;4639;48.862;9.188;2023-12-07T05:50:43;95.70;;;89.40;;
9208;SDS011;4639;48.862;9.188;2023-12-07T05:53:08;95.75;;;89.45;;
9208;SDS011;4639;48.862;9.188;2023-12-07T05:55:34;95.97;;;89.47;;
9208;SDS011;4639;48.862;9.188;2023-12-07T05:58:00;93.28;;;86.93;;
9208;SDS011;4639;48.862;9.188;2023-12-07T06:00:25;96.28;;;89.70;;
9208;SDS011;4639;48.862;9.188;2023-12-07T06:02:51;93.30;;;87.00;;
9208;SDS011;4639;48.862;9.188;2023-12-07T06:05:16;84.25;;;78.70;;
9208;SDS011;4639;48.862;9.188;2023-12-07T06:07:42;92.28;;;86.10;;
9208;SDS011;4639;48.862;9.188;2023-12-07T06:10:08;88.53;;;82.43;;
9208;SDS011;4639;48.862;9.188;2023-12-07T06:12:34;85.33;;;79.47;;
9208;SDS011;4639;48.862;9.188;2023-12-07T06:15:00;94.17;;;87.57;;
9208;SDS011;4639;48.862;9.188;2023-12-07T06:17:25;92.38;;;86.07;;
9208;SDS011;4639;48.862;9.188;2023-12-07T06:19:51;82.33;;;76.53;;
9208;SDS011;4639;48.862;9.188;2023-12-07T06:22:16;83.38;;;77.63;;
9208;SDS011;4639;48.862;9.188;2023-12-07T06:24:42;88.32;;;82.00;;
9208;SDS011;4639;48.862;9.188;2023-12-07T06:27:08;89.80;;;83.63;;
9208;SDS011;4639;48.862;9.188;2023-12-07T06:29:34;92.23;;;86.03;;
9208;SDS011;4639;48.862;9.188;2023-12-07T06:32:00;89.17;;;83.13;;
9208;SDS011;4639;48.862;9.188;2023-12-07T06:34:26;91.22;;;84.78;;
9208;SDS011;4639;48.862;9.188;2023-12-07T06:36:53;97.57;;;90.80;;
9208;SDS011;4639;48.862;9.188;2023-12-07T06:39:18;86.70;;;80.73;;
9208;SDS011;4639;48.862;9.188;2023-12-07T06:41:44;84.57;;;78.40;;
9208;SDS011;4639;48.862;9.188;2023-12-07T06:44:09;87.97;;;81.50;;
9208;SDS011;4639;48.862;9.188;2023-12-07T06:46:35;77.25;;;71.43;;
9208;SDS011;4639;48.862;9.188;2023-12-07T06:49:00;83.23;;;77.43;;
9208;SDS011;4639;48.862;9.188;2023-12-07T06:51:26;93.25;;;86.75;;
9208;SDS011;4639;48.862;9.188;2023-12-07T06:53:52;91.87;;;85.20;;
9208;SDS011;4639;48.862;9.188;2023-12-07T06:56:18;98.50;;;91.77;;
9208;SDS011;4639;48.862;9.188;2023-12-07T06:58:43;88.63;;;82.43;;
9208;SDS011;4639;48.862;9.188;2023-12-07T07:01:09;80.20;;;74.77;;
9208;SDS011;4639;48.862;9.188;2023-12-07T07:03:34;83.60;;;77.78;;
9208;SDS011;4639;48.862;9.188;2023-12-07T07:06:00;90.20;;;83.55;;
9208;SDS011;4639;48.862;9.188;2023-12-07T07:08:25;92.87;;;86.07;;
9208;SDS011;4639;48.862;9.188;2023-12-07T07:10:51;82.83;;;77.00;;
9208;SDS011;4639;48.862;9.188;2023-12-07T07:13:17;86.87;;;80.23;;
9208;SDS011;4639;48.862;9.188;2023-12-07T07:15:44;88.43;;;82.07;;
9208;SDS011;4639;48.862;9.188;2023-12-07T07:18:10;81.70;;;75.55;;
9208;SDS011;4639;48.862;9.188;2023-12-07T07:20:35;92.50;;;85.90;;
9208;SDS011;4639;48.862;9.188;2023-12-07T07:23:01;86.57;;;80.20;;
9208;SDS011;4639;48.862;9.188;2023-12-07T07:25:26;81.13;;;75.10;;
9208;SDS011;4639;48.862;9.188;2023-12-07T07:27:52;78.40;;;72.70;;
9208;SDS011;4639;48.862;9.188;2023-12-07T07:30:19;85.95;;;79.53;;
9208;SDS011;4639;48.862;9.188;2023-12-07T07:32:45;82.57;;;76.53;;
9208;SDS011;4639;48.862;9.188;2023-12-07T07:35:11;78.03;;;72.20;;
9208;SDS011;4639;48.862;9.188;2023-12-07T07:37:37;80.73;;;74.87;;
9208;SDS011;4639;48.862;9.188;2023-12-07T07:40:06;90.07;;;83.17;;
9208;SDS011;4639;48.862;9.188;2023-12-07T07:42:33;92.30;;;85.17;;
9208;SDS011;4639;48.862;9.188;2023-12-07T07:44:59;86.63;;;80.40;;
9208;SDS011;4639;48.862;9.188;2023-12-07T07:47:24;86.50;;;80.03;;
9208;SDS011;4639;48.862;9.188;2023-12-07T07:49:50;83.85;;;77.63;;
9208;SDS011;4639;48.862;9.188;2023-12-07T07:52:15;79.63;;;73.73;;
9208;SDS011;4639;48.862;9.188;2023-12-07T07:54:41;84.97;;;78.13;;
9208;SDS011;4639;48.862;9.188;2023-12-07T07:57:07;87.37;;;80.93;;
9208;SDS011;4639;48.862;9.188;2023-12-07T07:59:33;89.75;;;83.18;;
9208;SDS011;4639;48.862;9.188;2023-12-07T08:01:58;86.60;;;79.77;;
9208;SDS011;4639;48.862;9.188;2023-12-07T08:04:24;90.63;;;83.87;;
9208;SDS011;4639;48.862;9.188;2023-12-07T08:06:49;104.30;;;96.83;;
9208;SDS011;4639;48.862;9.188;2023-12-07T08:09:15;105.82;;;98.20;;
9208;SDS011;4639;48.862;9.188;2023-12-07T08:11:40;90.70;;;84.43;;
9208;SDS011;4639;48.862;9.188;2023-12-07T08:14:06;100.68;;;93.72;;
9208;SDS011;4639;48.862;9.188;2023-12-07T08:16:32;148.13;;;138.02;;
9208;SDS011;4639;48.862;9.188;2023-12-07T08:18:57;137.55;;;128.40;;
9208;SDS011;4639;48.862;9.188;2023-12-07T08:21:24;120.57;;;112.28;;
9208;SDS011;4639;48.862;9.188;2023-12-07T08:23:50;164.40;;;153.48;;
9208;SDS011;4639;48.862;9.188;2023-12-07T08:26:16;186.18;;;174.15;;
9208;SDS011;4639;48.862;9.188;2023-12-07T08:28:42;177.15;;;165.43;;
9208;SDS011;4639;48.862;9.188;2023-12-07T08:31:08;189.65;;;176.48;;
9208;SDS011;4639;48.862;9.188;2023-12-07T08:33:34;143.50;;;133.80;;
9208;SDS011;4639;48.862;9.188;2023-12-07T08:36:00;146.20;;;135.77;;
9208;SDS011;4639;48.862;9.188;2023-12-07T08:38:27;169.05;;;157.05;;
9208;SDS011;4639;48.862;9.188;2023-12-07T08:40:52;194.40;;;180.30;;
9208;SDS011;4639;48.862;9.188;2023-12-07T08:43:21;195.15;;;182.75;;
9208;SDS011;4639;48.862;9.188;2023-12-07T08:45:48;162.57;;;151.80;;
9208;SDS011;4639;48.862;9.188;2023-12-07T08:48:14;187.05;;;174.52;;
9208;SDS011;4639;48.862;9.188;2023-12-07T08:50:40;168.95;;;157.77;;
9208;SDS011;4639;48.862;9.188;2023-12-07T08:53:06;179.20;;;167.05;;
9208;SDS011;4639;48.862;9.188;2023-12-07T08:55:31;199.73;;;185.73;;
9208;SDS011;4639;48.862;9.188;2023-12-07T08:57:57;174.20;;;162.02;;
9208;SDS011;4639;48.862;9.188;2023-12-07T09:00:24;145.40;;;135.52;;
9208;SDS011;4639;48.862;9.188;2023-12-07T09:02:50;142.15;;;132.50;;
9208;SDS011;4639;48.862;9.188;2023-12-07T09:05:17;151.52;;;140.98;;
9208;SDS011;4639;48.862;9.188;2023-12-07T09:07:42;109.22;;;101.80;;
9208;SDS011;4639;48.862;9.188;2023-12-07T09:10:08;124.93;;;116.35;;
9208;SDS011;4639;48.862;9.188;2023-12-07T09:12:34;149.60;;;139.43;;
9208;SDS011;4639;48.862;9.188;2023-12-07T09:15:03;184.20;;;171.32;;
9208;SDS011;4639;48.862;9.188;2023-12-07T09:17:30;178.63;;;166.35;;
9208;SDS011;4639;48.862;9.188;2023-12-07T09:19:56;147.85;;;138.25;;
9208;SDS011;4639;48.862;9.188;2023-12-07T09:22:21;106.53;;;99.57;;
9208;SDS011;4639;48.862;9.188;2023-12-07T09:24:47;90.63;;;84.70;;
9208;SDS011;4639;48.862;9.188;2023-12-07T09:27:13;95.72;;;89.78;;
9208;SDS011;4639;48.862;9.188;2023-12-07T09:29:38;84.85;;;79.05;;
9208;SDS011;4639;48.862;9.188;2023-12-07T09:32:04;89.97;;;83.78;;
9208;SDS011;4639;48.862;9.188;2023-12-07T09:34:31;91.15;;;85.10;;
9208;SDS011;4639;48.862;9.188;2023-12-07T09:37:09;95.93;;;89.75;;
9208;SDS011;4639;48.862;9.188;2023-12-07T09:39:35;82.25;;;76.68;;
9208;SDS011;4639;48.862;9.188;2023-12-07T09:42:01;165.50;;;153.80;;
9208;SDS011;4639;48.862;9.188;2023-12-07T09:44:26;131.60;;;122.80;;
9208;SDS011;4639;48.862;9.188;2023-12-07T09:46:52;104.85;;;98.15;;
9208;SDS011;4639;48.862;9.188;2023-12-07T09:49:18;100.75;;;94.30;;
9208;SDS011;4639;48.862;9.188;2023-12-07T09:51:44;96.35;;;90.03;;
9208;SDS011;4639;48.862;9.188;2023-12-07T09:54:11;108.05;;;101.07;;
9208;SDS011;4639;48.862;9.188;2023-12-07T09:56:37;90.70;;;84.80;;
9208;SDS011;4639;48.862;9.188;2023-12-07T09:59:03;139.60;;;130.57;;
9208;SDS011;4639;48.862;9.188;2023-12-07T10:01:29;109.13;;;102.20;;
9208;SDS011;4639;48.862;9.188;2023-12-07T10:06:49;86.47;;;80.72;;
9208;SDS011;4639;48.862;9.188;2023-12-07T10:09:15;90.85;;;84.70;;
9208;SDS011;4639;48.862;9.188;2023-12-07T10:11:41;90.22;;;84.47;;
9208;SDS011;4639;48.862;9.188;2023-12-07T10:14:09;103.88;;;97.25;;
9208;SDS011;4639;48.862;9.188;2023-12-07T10:16:35;135.25;;;126.57;;
9208;SDS011;4639;48.862;9.188;2023-12-07T10:19:12;105.90;;;98.90;;
9208;SDS011;4639;48.862;9.188;2023-12-07T10:21:38;111.22;;;103.80;;
9208;SDS011;4639;48.862;9.188;2023-12-07T10:24:04;129.50;;;120.40;;
9208;SDS011;4639;48.862;9.188;2023-12-07T10:26:30;95.30;;;89.05;;
9208;SDS011;4639;48.862;9.188;2023-12-07T10:28:55;124.57;;;116.07;;
9208;SDS011;4639;48.862;9.188;2023-12-07T10:31:21;163.05;;;151.98;;
9208;SDS011;4639;48.862;9.188;2023-12-07T10:33:49;201.60;;;188.40;;
9208;SDS011;4639;48.862;9.188;2023-12-07T10:36:14;125.90;;;117.55;;
9208;SDS011;4639;48.862;9.188;2023-12-07T10:38:40;238.52;;;223.23;;
9208;SDS011;4639;48.862;9.188;2023-12-07T10:41:11;118.20;;;110.88;;
9208;SDS011;4639;48.862;9.188;2023-12-07T10:43:38;150.02;;;140.77;;
9208;SDS011;4639;48.862;9.188;2023-12-07T10:46:08;121.70;;;114.25;;
9208;SDS011;4639;48.862;9.188;2023-12-07T10:48:34;195.27;;;182.80;;
9208;SDS011;4639;48.862;9.188;2023-12-07T10:51:03;216.13;;;200.98;;
9208;SDS011;4639;48.862;9.188;2023-12-07T10:53:40;216.35;;;201.40;;
9208;SDS011;4639;48.862;9.188;2023-12-07T10:56:13;195.70;;;181.85;;
9208;SDS011;4639;48.862;9.188;2023-12-07T10:58:47;171.80;;;159.60;;
9208;SDS011;4639;48.862;9.188;2023-12-07T11:01:15;148.35;;;137.77;;
9208;SDS011;4639;48.862;9.188;2023-12-07T11:03:42;163.77;;;152.00;;
9208;SDS011;4639;48.862;9.188;2023-12-07T11:06:08;163.68;;;151.95;;
9208;SDS011;4639;48.862;9.188;2023-12-07T11:08:50;147.48;;;136.88;;
9208;SDS011;4639;48.862;9.188;2023-12-07T11:13:53;157.63;;;146.40;;
9208;SDS011;4639;48.862;9.188;2023-12-07T11:16:36;131.73;;;122.20;;
9208;SDS011;4639;48.862;9.188;2023-12-07T11:19:04;149.57;;;138.52;;
9208;SDS011;4639;48.862;9.188;2023-12-07T11:21:30;175.50;;;163.00;;
9208;SDS011;4639;48.862;9.188;2023-12-07T11:23:59;167.15;;;155.10;;
9208;SDS011;4639;48.862;9.188;2023-12-07T11:26:26;156.90;;;145.27;;
9208;SDS011;4639;48.862;9.188;2023-12-07T11:28:52;151.57;;;140.65;;
9208;SDS011;4639;48.862;9.188;2023-12-07T11:31:19;138.52;;;128.75;;
9208;SDS011;4639;48.862;9.188;2023-12-07T11:33:46;195.38;;;181.15;;
9208;SDS011;4639;48.862;9.188;2023-12-07T11:36:13;184.68;;;171.70;;
9208;SDS011;4639;48.862;9.188;2023-12-07T11:39:15;174.60;;;162.43;;
9208;SDS011;4639;48.862;9.188;2023-12-07T11:41:35;131.98;;;123.15;;
9208;SDS011;4639;48.862;9.188;2023-12-07T11:44:07;127.35;;;118.15;;
9208;SDS011;4639;48.862;9.188;2023-12-07T11:46:36;149.73;;;139.90;;
9208;SDS011;4639;48.862;9.188;2023-12-07T11:49:02;150.50;;;140.05;;
9208;SDS011;4639;48.862;9.188;2023-12-07T11:51:29;145.57;;;135.35;;
9208;SDS011;4639;48.862;9.188;2023-12-07T11:53:54;161.85;;;150.82;;
9208;SDS011;4639;48.862;9.188;2023-12-07T11:56:20;223.63;;;209.50;;
9208;SDS011;4639;48.862;9.188;2023-12-07T11:58:46;160.48;;;149.93;;
9208;SDS011;4639;48.862;9.188;2023-12-07T12:01:13;218.43;;;203.75;;
9208;SDS011;4639;48.862;9.188;2023-12-07T12:03:40;160.05;;;149.05;;
9208;SDS011;4639;48.862;9.188;2023-12-07T12:06:06;160.32;;;149.82;;
9208;SDS011;4639;48.862;9.188;2023-12-07T12:08:33;166.50;;;155.43;;
9208;SDS011;4639;48.862;9.188;2023-12-07T12:10:59;156.80;;;146.48;;
9208;SDS011;4639;48.862;9.188;2023-12-07T12:13:28;165.98;;;154.85;;
9208;SDS011;4639;48.862;9.188;2023-12-07T12:15:58;148.13;;;137.77;;
9208;SDS011;4639;48.862;9.188;2023-12-07T12:18:25;141.48;;;132.00;;
9208;SDS011;4639;48.862;9.188;2023-12-07T12:20:51;149.15;;;139.00;;
9208;SDS011;4639;48.862;9.188;2023-12-07T12:23:18;168.20;;;156.68;;
9208;SDS011;4639;48.862;9.188;2023-12-07T12:25:43;155.82;;;144.73;;
9208;SDS011;4639;48.862;9.188;2023-12-07T12:28:10;149.13;;;138.82;;
9208;SDS011;4639;48.862;9.188;2023-12-07T12:30:36;168.05;;;156.52;;
9208;SDS011;4639;48.862;9.188;2023-12-07T12:33:02;161.98;;;150.93;;
9208;SDS011;4639;48.862;9.188;2023-12-07T12:35:28;174.07;;;162.10;;
9208;SDS011;4639;48.862;9.188;2023-12-07T12:37:54;168.88;;;156.82;;
9208;SDS011;4639;48.862;9.188;2023-12-07T12:40:23;151.95;;;141.52;;
9208;SDS011;4639;48.862;9.188;2023-12-07T12:42:52;151.23;;;140.68;;
9208;SDS011;4639;48.862;9.188;2023-12-07T12:45:18;144.75;;;134.65;;
9208;SDS011;4639;48.862;9.188;2023-12-07T12:47:45;162.27;;;151.35;;
9208;SDS011;4639;48.862;9.188;2023-12-07T12:50:11;152.25;;;141.52;;
9208;SDS011;4639;48.862;9.188;2023-12-07T12:52:41;152.73;;;142.57;;
9208;SDS011;4639;48.862;9.188;2023-12-07T12:55:07;147.38;;;137.50;;
9208;SDS011;4639;48.862;9.188;2023-12-07T12:57:35;161.77;;;151.00;;
9208;SDS011;4639;48.862;9.188;2023-12-07T13:00:01;167.57;;;156.52;;
9208;SDS011;4639;48.862;9.188;2023-12-07T13:02:27;181.48;;;169.82;;
9208;SDS011;4639;48.862;9.188;2023-12-07T13:04:53;153.43;;;143.45;;
9208;SDS011;4639;48.862;9.188;2023-12-07T13:07:20;161.18;;;150.57;;
9208;SDS011;4639;48.862;9.188;2023-12-07T13:09:46;170.93;;;159.57;;
9208;SDS011;4639;48.862;9.188;2023-12-07T13:12:12;181.45;;;169.25;;
9208;SDS011;4639;48.862;9.188;2023-12-07T13:14:38;186.40;;;174.00;;
9208;SDS011;4639;48.862;9.188;2023-12-07T13:17:05;175.02;;;163.55;;
9208;SDS011;4639;48.862;9.188;2023-12-07T13:19:32;179.98;;;168.60;;
9208;SDS011;4639;48.862;9.188;2023-12-07T13:21:58;169.00;;;158.07;;
9208;SDS011;4639;48.862;9.188;2023-12-07T13:24:24;170.63;;;159.63;;
9208;SDS011;4639;48.862;9.188;2023-12-07T13:26:49;172.55;;;160.60;;
9208;SDS011;4639;48.862;9.188;2023-12-07T13:29:15;172.70;;;160.88;;
9208;SDS011;4639;48.862;9.188;2023-12-07T13:31:41;167.20;;;155.48;;
9208;SDS011;4639;48.862;9.188;2023-12-07T13:34:06;154.10;;;143.77;;
9208;SDS011;4639;48.862;9.188;2023-12-07T13:36:32;140.85;;;130.73;;
9208;SDS011;4639;48.862;9.188;2023-12-07T13:38:58;142.00;;;132.45;;
9208;SDS011;4639;48.862;9.188;2023-12-07T13:41:27;151.65;;;141.05;;
9208;SDS011;4639;48.862;9.188;2023-12-07T13:43:52;160.32;;;149.73;;
9208;SDS011;4639;48.862;9.188;2023-12-07T13:46:18;149.88;;;139.77;;
9208;SDS011;4639;48.862;9.188;2023-12-07T13:48:44;144.98;;;135.07;;
9208;SDS011;4639;48.862;9.188;2023-12-07T13:51:10;149.02;;;137.50;;
9208;SDS011;4639;48.862;9.188;2023-12-07T13:53:35;132.50;;;123.25;;
9208;SDS011;4639;48.862;9.188;2023-12-07T13:56:02;145.43;;;134.95;;
9208;SDS011;4639;48.862;9.188;2023-12-07T13:58:29;159.25;;;148.15;;
9208;SDS011;4639;48.862;9.188;2023-12-07T14:00:55;152.32;;;142.13;;
9208;SDS011;4639;48.862;9.188;2023-12-07T14:03:21;149.02;;;139.45;;
9208;SDS011;4639;48.862;9.188;2023-12-07T14:05:46;153.98;;;143.68;;
9208;SDS011;4639;48.862;9.188;2023-12-07T14:08:12;149.52;;;139.82;;
9208;SDS011;4639;48.862;9.188;2023-12-07T14:10:38;157.00;;;146.60;;
9208;SDS011;4639;48.862;9.188;2023-12-07T14:13:04;141.68;;;132.45;;
9208;SDS011;4639;48.862;9.188;2023-12-07T14:15:30;163.77;;;153.10;;
9208;SDS011;4639;48.862;9.188;2023-12-07T14:17:57;147.93;;;137.27;;
9208;SDS011;4639;48.862;9.188;2023-12-07T14:20:25;142.50;;;132.63;;
9208;SDS011;4639;48.862;9.188;2023-12-07T14:22:53;139.93;;;130.40;;
9208;SDS011;4639;48.862;9.188;2023-12-07T14:25:19;141.10;;;131.18;;
9208;SDS011;4639;48.862;9.188;2023-12-07T14:27:44;132.82;;;123.03;;
9208;SDS011;4639;48.862;9.188;2023-12-07T14:30:10;137.98;;;128.27;;
9208;SDS011;4639;48.862;9.188;2023-12-07T14:32:36;131.45;;;122.50;;
9208;SDS011;4639;48.862;9.188;2023-12-07T14:35:02;160.20;;;149.52;;